sensor_id;sensor_type;location;lat;lon;timestamp;temperature;humidity
30288;DHT22;17103;48.316;11.558;2023-02-21T00:01:51;15.20;36.60
30288;DHT22;17103;48.316;11.558;2023-02-21T00:04:35;15.20;36.50
30288;DHT22;17103;48.316;11.558;2023-02-21T00:07:20;15.20;36.40
30288;DHT22;17103;48.316;11.558;2023-02-21T00:10:05;15.30;36.30
30288;DHT22;17103;48.316;11.558;2023-02-21T00:12:50;15.30;36.20
30288;DHT22;17103;48.316;11.558;2023-02-21T00:15:34;15.40;36.20
30288;DHT22;17103;48.316;11.558;2023-02-21T00:18:19;15.30;36.00
30288;DHT22;17103;48.316;11.558;2023-02-21T00:21:04;15.40;35.90
30288;DHT22;17103;48.316;11.558;2023-02-21T00:23:48;15.40;35.90
30288;DHT22;17103;48.316;11.558;2023-02-21T00:26:32;15.40;35.80
30288;DHT22;17103;48.316;11.558;2023-02-21T00:29:16;15.40;35.80
30288;DHT22;17103;48.316;11.558;2023-02-21T00:32:00;15.40;35.70
30288;DHT22;17103;48.316;11.558;2023-02-21T00:34:45;15.40;35.60
30288;DHT22;17103;48.316;11.558;2023-02-21T00:37:29;15.50;35.60
30288;DHT22;17103;48.316;11.558;2023-02-21T00:40:14;15.50;35.50
30288;DHT22;17103;48.316;11.558;2023-02-21T00:42:59;15.40;35.20
30288;DHT22;17103;48.316;11.558;2023-02-21T00:45:43;15.50;35.30
30288;DHT22;17103;48.316;11.558;2023-02-21T00:48:28;15.40;35.20
30288;DHT22;17103;48.316;11.558;2023-02-21T00:51:12;15.40;35.20
30288;DHT22;17103;48.316;11.558;2023-02-21T00:53:56;15.30;35.00
30288;DHT22;17103;48.316;11.558;2023-02-21T00:56:40;15.40;34.90
30288;DHT22;17103;48.316;11.558;2023-02-21T00:59:25;15.30;34.80
30288;DHT22;17103;48.316;11.558;2023-02-21T01:02:09;15.40;34.80
30288;DHT22;17103;48.316;11.558;2023-02-21T01:04:53;15.20;34.60
30288;DHT22;17103;48.316;11.558;2023-02-21T01:07:38;15.10;34.60
30288;DHT22;17103;48.316;11.558;2023-02-21T01:10:23;15.10;34.40
30288;DHT22;17103;48.316;11.558;2023-02-21T01:13:07;15.10;34.40
30288;DHT22;17103;48.316;11.558;2023-02-21T01:15:51;14.90;34.40
30288;DHT22;17103;48.316;11.558;2023-02-21T01:18:35;14.80;34.20
30288;DHT22;17103;48.316;11.558;2023-02-21T01:21:20;14.80;34.50
30288;DHT22;17103;48.316;11.558;2023-02-21T01:24:05;14.70;34.60
30288;DHT22;17103;48.316;11.558;2023-02-21T01:26:50;14.70;34.70
30288;DHT22;17103;48.316;11.558;2023-02-21T01:29:35;14.70;34.60
30288;DHT22;17103;48.316;11.558;2023-02-21T01:32:19;14.70;34.20
30288;DHT22;17103;48.316;11.558;2023-02-21T01:35:04;14.60;34.40
30288;DHT22;17103;48.316;11.558;2023-02-21T01:37:49;14.60;34.50
30288;DHT22;17103;48.316;11.558;2023-02-21T01:40:33;14.60;34.50
30288;DHT22;17103;48.316;11.558;2023-02-21T01:43:20;14.50;34.30
30288;DHT22;17103;48.316;11.558;2023-02-21T01:46:05;14.50;34.30
30288;DHT22;17103;48.316;11.558;2023-02-21T01:48:51;14.50;34.40
30288;DHT22;17103;48.316;11.558;2023-02-21T01:51:39;14.50;34.50
30288;DHT22;17103;48.316;11.558;2023-02-21T01:54:27;14.40;34.30
30288;DHT22;17103;48.316;11.558;2023-02-21T01:57:13;14.40;34.30
30288;DHT22;17103;48.316;11.558;2023-02-21T01:59:59;14.40;34.40
30288;DHT22;17103;48.316;11.558;2023-02-21T02:03:01;14.30;34.40
30288;DHT22;17103;48.316;11.558;2023-02-21T02:05:48;14.50;34.60
30288;DHT22;17103;48.316;11.558;2023-02-21T02:08:33;14.30;34.40
30288;DHT22;17103;48.316;11.558;2023-02-21T02:20:53;14.20;34.50
30288;DHT22;17103;48.316;11.558;2023-02-21T02:23:30;14.20;34.50
30288;DHT22;17103;48.316;11.558;2023-02-21T02:26:32;14.20;34.60
30288;DHT22;17103;48.316;11.558;2023-02-21T02:29:10;14.20;34.70
30288;DHT22;17103;48.316;11.558;2023-02-21T02:43:14;14.00;35.10
30288;DHT22;17103;48.316;11.558;2023-02-21T02:48:52;14.00;35.30
30288;DHT22;17103;48.316;11.558;2023-02-21T02:51:20;14.10;35.40
30288;DHT22;17103;48.316;11.558;2023-02-21T02:53:46;14.10;35.40
30288;DHT22;17103;48.316;11.558;2023-02-21T02:56:15;14.10;35.40
30288;DHT22;17103;48.316;11.558;2023-02-21T02:58:46;14.20;35.50
30288;DHT22;17103;48.316;11.558;2023-02-21T03:12:37;14.20;35.50
30288;DHT22;17103;48.316;11.558;2023-02-21T03:18:32;14.20;35.50
30288;DHT22;17103;48.316;11.558;2023-02-21T03:21:06;14.30;35.60
30288;DHT22;17103;48.316;11.558;2023-02-21T03:23:34;14.30;35.60
30288;DHT22;17103;48.316;11.558;2023-02-21T03:26:06;14.30;35.70
30288;DHT22;17103;48.316;11.558;2023-02-21T03:28:34;14.30;35.60
30288;DHT22;17103;48.316;11.558;2023-02-21T03:31:02;14.40;35.70
30288;DHT22;17103;48.316;11.558;2023-02-21T03:33:30;14.40;35.60
30288;DHT22;17103;48.316;11.558;2023-02-21T03:35:59;14.40;35.50
30288;DHT22;17103;48.316;11.558;2023-02-21T03:38:28;14.30;35.50
30288;DHT22;17103;48.316;11.558;2023-02-21T03:40:54;14.30;35.60
30288;DHT22;17103;48.316;11.558;2023-02-21T03:43:20;14.30;35.60
30288;DHT22;17103;48.316;11.558;2023-02-21T03:45:45;14.30;35.60
30288;DHT22;17103;48.316;11.558;2023-02-21T03:48:11;14.40;35.70
30288;DHT22;17103;48.316;11.558;2023-02-21T03:50:37;14.20;35.60
30288;DHT22;17103;48.316;11.558;2023-02-21T03:53:02;14.20;35.70
30288;DHT22;17103;48.316;11.558;2023-02-21T03:55:28;14.10;35.70
30288;DHT22;17103;48.316;11.558;2023-02-21T03:57:54;14.10;35.80
30288;DHT22;17103;48.316;11.558;2023-02-21T04:00:19;14.00;35.80
30288;DHT22;17103;48.316;11.558;2023-02-21T04:02:45;14.00;35.90
30288;DHT22;17103;48.316;11.558;2023-02-21T04:05:11;14.00;35.80
30288;DHT22;17103;48.316;11.558;2023-02-21T04:07:36;14.00;35.90
30288;DHT22;17103;48.316;11.558;2023-02-21T04:10:03;14.00;35.80
30288;DHT22;17103;48.316;11.558;2023-02-21T04:12:29;13.90;35.70
30288;DHT22;17103;48.316;11.558;2023-02-21T04:14:55;13.90;35.70
30288;DHT22;17103;48.316;11.558;2023-02-21T04:17:23;13.80;35.60
30288;DHT22;17103;48.316;11.558;2023-02-21T04:19:49;13.80;35.50
30288;DHT22;17103;48.316;11.558;2023-02-21T04:22:14;13.70;35.40
30288;DHT22;17103;48.316;11.558;2023-02-21T04:24:40;13.60;35.50
30288;DHT22;17103;48.316;11.558;2023-02-21T04:27:07;13.40;35.50
30288;DHT22;17103;48.316;11.558;2023-02-21T04:29:33;13.30;35.60
30288;DHT22;17103;48.316;11.558;2023-02-21T04:31:59;13.20;36.00
30288;DHT22;17103;48.316;11.558;2023-02-21T04:34:24;13.10;36.00
30288;DHT22;17103;48.316;11.558;2023-02-21T04:36:50;13.00;35.90
30288;DHT22;17103;48.316;11.558;2023-02-21T04:39:15;12.90;36.10
30288;DHT22;17103;48.316;11.558;2023-02-21T04:41:41;12.80;36.20
30288;DHT22;17103;48.316;11.558;2023-02-21T04:44:07;12.70;36.20
30288;DHT22;17103;48.316;11.558;2023-02-21T04:46:33;12.70;36.50
30288;DHT22;17103;48.316;11.558;2023-02-21T04:48:58;12.60;36.60
30288;DHT22;17103;48.316;11.558;2023-02-21T04:51:25;12.60;36.70
30288;DHT22;17103;48.316;11.558;2023-02-21T04:53:52;12.60;36.80
30288;DHT22;17103;48.316;11.558;2023-02-21T04:56:20;12.50;36.80
30288;DHT22;17103;48.316;11.558;2023-02-21T04:58:46;12.50;36.80
30288;DHT22;17103;48.316;11.558;2023-02-21T05:01:13;12.50;36.90
30288;DHT22;17103;48.316;11.558;2023-02-21T05:03:39;12.50;36.90
30288;DHT22;17103;48.316;11.558;2023-02-21T05:06:05;12.50;36.90
30288;DHT22;17103;48.316;11.558;2023-02-21T05:08:30;12.50;36.90
30288;DHT22;17103;48.316;11.558;2023-02-21T05:10:56;12.50;37.00
30288;DHT22;17103;48.316;11.558;2023-02-21T05:13:22;12.60;37.10
30288;DHT22;17103;48.316;11.558;2023-02-21T05:15:48;12.50;37.10
30288;DHT22;17103;48.316;11.558;2023-02-21T05:18:14;12.60;37.10
30288;DHT22;17103;48.316;11.558;2023-02-21T05:20:47;12.60;37.00
30288;DHT22;17103;48.316;11.558;2023-02-21T05:23:13;12.60;37.00
30288;DHT22;17103;48.316;11.558;2023-02-21T05:25:41;12.50;37.40
30288;DHT22;17103;48.316;11.558;2023-02-21T05:28:07;12.50;37.00
30288;DHT22;17103;48.316;11.558;2023-02-21T05:30:33;12.50;37.00
30288;DHT22;17103;48.316;11.558;2023-02-21T05:32:58;12.50;36.90
30288;DHT22;17103;48.316;11.558;2023-02-21T05:35:25;12.50;37.00
30288;DHT22;17103;48.316;11.558;2023-02-21T05:37:51;12.40;36.90
30288;DHT22;17103;48.316;11.558;2023-02-21T05:40:17;12.40;36.90
30288;DHT22;17103;48.316;11.558;2023-02-21T05:42:42;12.40;37.10
30288;DHT22;17103;48.316;11.558;2023-02-21T05:45:10;12.30;37.10
30288;DHT22;17103;48.316;11.558;2023-02-21T05:47:36;12.30;37.20
30288;DHT22;17103;48.316;11.558;2023-02-21T05:50:03;12.30;37.20
30288;DHT22;17103;48.316;11.558;2023-02-21T05:52:29;12.30;37.30
30288;DHT22;17103;48.316;11.558;2023-02-21T05:54:54;12.30;37.00
30288;DHT22;17103;48.316;11.558;2023-02-21T05:57:20;12.30;37.40
30288;DHT22;17103;48.316;11.558;2023-02-21T05:59:46;12.30;37.40
30288;DHT22;17103;48.316;11.558;2023-02-21T06:02:14;12.60;37.60
30288;DHT22;17103;48.316;11.558;2023-02-21T06:04:40;12.30;37.30
30288;DHT22;17103;48.316;11.558;2023-02-21T06:07:05;12.30;37.00
30288;DHT22;17103;48.316;11.558;2023-02-21T06:09:31;12.30;36.80
30288;DHT22;17103;48.316;11.558;2023-02-21T06:11:57;12.20;36.60
30288;DHT22;17103;48.316;11.558;2023-02-21T06:14:23;12.20;36.50
30288;DHT22;17103;48.316;11.558;2023-02-21T06:16:49;12.00;36.40
30288;DHT22;17103;48.316;11.558;2023-02-21T06:19:16;11.90;36.40
30288;DHT22;17103;48.316;11.558;2023-02-21T06:21:43;11.70;36.50
30288;DHT22;17103;48.316;11.558;2023-02-21T06:24:09;11.60;36.50
30288;DHT22;17103;48.316;11.558;2023-02-21T06:26:35;11.50;36.70
30288;DHT22;17103;48.316;11.558;2023-02-21T06:29:03;11.30;36.70
30288;DHT22;17103;48.316;11.558;2023-02-21T06:31:29;11.20;36.90
30288;DHT22;17103;48.316;11.558;2023-02-21T06:33:55;11.10;37.10
30288;DHT22;17103;48.316;11.558;2023-02-21T06:36:23;11.00;37.30
30288;DHT22;17103;48.316;11.558;2023-02-21T06:38:51;10.90;37.40
30288;DHT22;17103;48.316;11.558;2023-02-21T06:41:23;10.80;37.50
30288;DHT22;17103;48.316;11.558;2023-02-21T06:43:51;10.60;37.70
30288;DHT22;17103;48.316;11.558;2023-02-21T06:46:19;10.60;37.70
30288;DHT22;17103;48.316;11.558;2023-02-21T06:48:44;10.50;37.90
30288;DHT22;17103;48.316;11.558;2023-02-21T06:51:10;10.40;38.00
30288;DHT22;17103;48.316;11.558;2023-02-21T06:53:40;10.30;38.20
30288;DHT22;17103;48.316;11.558;2023-02-21T06:56:06;10.30;38.50
30288;DHT22;17103;48.316;11.558;2023-02-21T06:58:34;10.20;38.40
30288;DHT22;17103;48.316;11.558;2023-02-21T07:01:00;10.10;38.50
30288;DHT22;17103;48.316;11.558;2023-02-21T07:03:26;10.10;38.70
30288;DHT22;17103;48.316;11.558;2023-02-21T07:05:52;10.00;38.70
30288;DHT22;17103;48.316;11.558;2023-02-21T07:08:17;10.00;38.70
30288;DHT22;17103;48.316;11.558;2023-02-21T07:10:43;10.00;38.90
30288;DHT22;17103;48.316;11.558;2023-02-21T07:13:09;10.00;38.90
30288;DHT22;17103;48.316;11.558;2023-02-21T07:15:35;10.00;39.10
30288;DHT22;17103;48.316;11.558;2023-02-21T07:18:01;9.90;40.10
30288;DHT22;17103;48.316;11.558;2023-02-21T07:20:26;9.90;40.40
30288;DHT22;17103;48.316;11.558;2023-02-21T07:22:52;9.90;40.50
30288;DHT22;17103;48.316;11.558;2023-02-21T07:25:20;9.80;40.90
30288;DHT22;17103;48.316;11.558;2023-02-21T07:27:47;9.80;40.40
30288;DHT22;17103;48.316;11.558;2023-02-21T07:30:16;9.80;40.20
30288;DHT22;17103;48.316;11.558;2023-02-21T07:32:42;9.80;40.40
30288;DHT22;17103;48.316;11.558;2023-02-21T07:35:08;9.90;40.80
30288;DHT22;17103;48.316;11.558;2023-02-21T07:37:34;9.90;40.80
30288;DHT22;17103;48.316;11.558;2023-02-21T07:39:59;9.90;41.00
30288;DHT22;17103;48.316;11.558;2023-02-21T07:42:25;9.90;40.90
30288;DHT22;17103;48.316;11.558;2023-02-21T07:44:55;10.00;40.00
30288;DHT22;17103;48.316;11.558;2023-02-21T07:47:22;9.90;41.10
30288;DHT22;17103;48.316;11.558;2023-02-21T07:49:48;10.00;39.80
30288;DHT22;17103;48.316;11.558;2023-02-21T07:52:13;10.00;40.20
30288;DHT22;17103;48.316;11.558;2023-02-21T07:54:39;10.00;40.30
30288;DHT22;17103;48.316;11.558;2023-02-21T07:57:04;10.10;40.40
30288;DHT22;17103;48.316;11.558;2023-02-21T07:59:31;10.10;40.40
30288;DHT22;17103;48.316;11.558;2023-02-21T08:01:57;10.20;40.30
30288;DHT22;17103;48.316;11.558;2023-02-21T08:04:23;10.20;40.30
30288;DHT22;17103;48.316;11.558;2023-02-21T08:06:50;10.30;40.40
30288;DHT22;17103;48.316;11.558;2023-02-21T08:09:15;10.40;40.30
30288;DHT22;17103;48.316;11.558;2023-02-21T08:11:41;10.50;40.20
30288;DHT22;17103;48.316;11.558;2023-02-21T08:14:07;10.50;40.20
30288;DHT22;17103;48.316;11.558;2023-02-21T08:16:32;10.60;40.10
30288;DHT22;17103;48.316;11.558;2023-02-21T08:18:58;10.70;40.00
30288;DHT22;17103;48.316;11.558;2023-02-21T08:21:24;10.70;39.90
30288;DHT22;17103;48.316;11.558;2023-02-21T08:23:53;10.90;40.10
30288;DHT22;17103;48.316;11.558;2023-02-21T08:26:20;11.10;40.30
30288;DHT22;17103;48.316;11.558;2023-02-21T08:28:48;11.00;40.50
30288;DHT22;17103;48.316;11.558;2023-02-21T08:31:14;11.10;40.20
30288;DHT22;17103;48.316;11.558;2023-02-21T08:33:40;11.20;40.20
30288;DHT22;17103;48.316;11.558;2023-02-21T08:36:06;11.20;40.10
30288;DHT22;17103;48.316;11.558;2023-02-21T08:38:32;11.30;40.10
30288;DHT22;17103;48.316;11.558;2023-02-21T08:40:58;11.30;39.90
30288;DHT22;17103;48.316;11.558;2023-02-21T08:43:24;11.40;39.90
30288;DHT22;17103;48.316;11.558;2023-02-21T08:45:50;11.50;40.20
30288;DHT22;17103;48.316;11.558;2023-02-21T08:48:16;11.50;40.10
30288;DHT22;17103;48.316;11.558;2023-02-21T08:50:41;11.60;40.10
30288;DHT22;17103;48.316;11.558;2023-02-21T08:53:08;11.60;40.00
30288;DHT22;17103;48.316;11.558;2023-02-21T08:55:34;11.70;40.20
30288;DHT22;17103;48.316;11.558;2023-02-21T08:57:59;11.70;40.10
30288;DHT22;17103;48.316;11.558;2023-02-21T09:00:25;11.80;40.10
30288;DHT22;17103;48.316;11.558;2023-02-21T09:02:55;11.80;40.20
30288;DHT22;17103;48.316;11.558;2023-02-21T09:05:24;11.80;40.20
30288;DHT22;17103;48.316;11.558;2023-02-21T09:07:52;12.00;40.20
30288;DHT22;17103;48.316;11.558;2023-02-21T09:10:29;12.00;40.20
30288;DHT22;17103;48.316;11.558;2023-02-21T09:12:58;12.10;40.40
30288;DHT22;17103;48.316;11.558;2023-02-21T09:15:24;12.20;40.10
30288;DHT22;17103;48.316;11.558;2023-02-21T09:17:50;12.30;40.00
30288;DHT22;17103;48.316;11.558;2023-02-21T09:20:18;12.30;39.90
30288;DHT22;17103;48.316;11.558;2023-02-21T09:22:44;12.40;40.10
30288;DHT22;17103;48.316;11.558;2023-02-21T09:25:11;12.40;39.90
30288;DHT22;17103;48.316;11.558;2023-02-21T09:27:38;12.50;40.00
30288;DHT22;17103;48.316;11.558;2023-02-21T09:30:16;12.60;40.10
30288;DHT22;17103;48.316;11.558;2023-02-21T09:32:42;12.70;40.20
30288;DHT22;17103;48.316;11.558;2023-02-21T09:35:09;12.70;40.10
30288;DHT22;17103;48.316;11.558;2023-02-21T09:37:42;12.80;40.10
30288;DHT22;17103;48.316;11.558;2023-02-21T09:42:59;13.00;40.00
30288;DHT22;17103;48.316;11.558;2023-02-21T09:45:30;13.10;39.90
30288;DHT22;17103;48.316;11.558;2023-02-21T09:47:58;13.30;39.70
30288;DHT22;17103;48.316;11.558;2023-02-21T09:50:31;13.40;39.60
30288;DHT22;17103;48.316;11.558;2023-02-21T09:52:59;13.60;39.70
30288;DHT22;17103;48.316;11.558;2023-02-21T09:55:35;13.70;39.70
30288;DHT22;17103;48.316;11.558;2023-02-21T09:58:04;13.70;39.40
30288;DHT22;17103;48.316;11.558;2023-02-21T10:00:36;13.90;39.40
30288;DHT22;17103;48.316;11.558;2023-02-21T10:06:29;14.10;38.50
30288;DHT22;17103;48.316;11.558;2023-02-21T10:11:40;14.40;37.50
30288;DHT22;17103;48.316;11.558;2023-02-21T10:17:24;14.60;37.60
30288;DHT22;17103;48.316;11.558;2023-02-21T10:19:59;14.70;37.60
30288;DHT22;17103;48.316;11.558;2023-02-21T10:22:32;14.80;38.10
30288;DHT22;17103;48.316;11.558;2023-02-21T10:24:58;14.90;37.20
30288;DHT22;17103;48.316;11.558;2023-02-21T10:27:28;15.00;37.20
30288;DHT22;17103;48.316;11.558;2023-02-21T10:30:06;15.10;37.20
30288;DHT22;17103;48.316;11.558;2023-02-21T10:32:35;15.20;36.70
30288;DHT22;17103;48.316;11.558;2023-02-21T10:35:02;15.30;37.20
30288;DHT22;17103;48.316;11.558;2023-02-21T10:43:06;15.50;37.30
30288;DHT22;17103;48.316;11.558;2023-02-21T10:45:38;15.60;37.00
30288;DHT22;17103;48.316;11.558;2023-02-21T10:48:05;15.70;37.20
30288;DHT22;17103;48.316;11.558;2023-02-21T10:50:41;15.80;37.10
30288;DHT22;17103;48.316;11.558;2023-02-21T10:53:08;15.90;37.00
30288;DHT22;17103;48.316;11.558;2023-02-21T10:55:34;16.00;37.20
30288;DHT22;17103;48.316;11.558;2023-02-21T10:58:08;16.10;37.00
30288;DHT22;17103;48.316;11.558;2023-02-21T11:00:42;16.20;36.70
30288;DHT22;17103;48.316;11.558;2023-02-21T11:03:23;16.30;36.60
30288;DHT22;17103;48.316;11.558;2023-02-21T11:05:54;16.40;36.70
30288;DHT22;17103;48.316;11.558;2023-02-21T11:08:43;16.50;37.20
30288;DHT22;17103;48.316;11.558;2023-02-21T11:11:09;16.60;36.70
30288;DHT22;17103;48.316;11.558;2023-02-21T11:13:35;16.70;36.70
30288;DHT22;17103;48.316;11.558;2023-02-21T11:16:19;16.80;37.00
30288;DHT22;17103;48.316;11.558;2023-02-21T11:19:03;16.90;37.10
30288;DHT22;17103;48.316;11.558;2023-02-21T11:21:30;17.00;36.20
30288;DHT22;17103;48.316;11.558;2023-02-21T11:23:59;17.10;36.10
30288;DHT22;17103;48.316;11.558;2023-02-21T11:26:37;17.20;36.20
30288;DHT22;17103;48.316;11.558;2023-02-21T11:29:12;17.30;35.70
30288;DHT22;17103;48.316;11.558;2023-02-21T11:31:38;17.30;35.20
30288;DHT22;17103;48.316;11.558;2023-02-21T11:34:06;17.40;35.70
30288;DHT22;17103;48.316;11.558;2023-02-21T11:36:35;17.50;36.50
30288;DHT22;17103;48.316;11.558;2023-02-21T11:39:18;17.60;36.90
30288;DHT22;17103;48.316;11.558;2023-02-21T11:41:53;17.60;37.00
30288;DHT22;17103;48.316;11.558;2023-02-21T11:46:48;17.80;35.60
30288;DHT22;17103;48.316;11.558;2023-02-21T11:49:36;17.90;35.20
30288;DHT22;17103;48.316;11.558;2023-02-21T11:52:10;18.00;34.90
30288;DHT22;17103;48.316;11.558;2023-02-21T11:54:37;18.00;34.80
30288;DHT22;17103;48.316;11.558;2023-02-21T11:57:16;18.10;35.50
30288;DHT22;17103;48.316;11.558;2023-02-21T12:00:12;18.20;33.50
30288;DHT22;17103;48.316;11.558;2023-02-21T12:06:04;18.30;33.50
30288;DHT22;17103;48.316;11.558;2023-02-21T12:08:36;18.30;32.80
30288;DHT22;17103;48.316;11.558;2023-02-21T12:11:25;18.30;33.40
30288;DHT22;17103;48.316;11.558;2023-02-21T12:14:15;18.30;33.10
30288;DHT22;17103;48.316;11.558;2023-02-21T12:19:53;18.30;33.60
30288;DHT22;17103;48.316;11.558;2023-02-21T12:28:03;18.50;34.30
30288;DHT22;17103;48.316;11.558;2023-02-21T12:30:39;18.60;33.50
30288;DHT22;17103;48.316;11.558;2023-02-21T12:33:40;18.60;33.70
30288;DHT22;17103;48.316;11.558;2023-02-21T12:41:48;18.90;34.40
30288;DHT22;17103;48.316;11.558;2023-02-21T12:44:20;18.90;33.10
30288;DHT22;17103;48.316;11.558;2023-02-21T12:47:00;19.00;33.20
30288;DHT22;17103;48.316;11.558;2023-02-21T12:55:00;19.20;33.90
30288;DHT22;17103;48.316;11.558;2023-02-21T12:57:40;19.30;32.90
30288;DHT22;17103;48.316;11.558;2023-02-21T13:05:51;19.40;32.80
30288;DHT22;17103;48.316;11.558;2023-02-21T13:08:25;19.40;33.20
30288;DHT22;17103;48.316;11.558;2023-02-21T13:13:32;19.60;33.20
30288;DHT22;17103;48.316;11.558;2023-02-21T13:16:02;19.70;33.00
30288;DHT22;17103;48.316;11.558;2023-02-21T13:18:32;19.70;32.10
30288;DHT22;17103;48.316;11.558;2023-02-21T13:21:33;19.80;32.00
30288;DHT22;17103;48.316;11.558;2023-02-21T13:24:09;19.80;31.80
30288;DHT22;17103;48.316;11.558;2023-02-21T13:27:25;19.90;33.00
30288;DHT22;17103;48.316;11.558;2023-02-21T13:30:10;19.90;32.90
30288;DHT22;17103;48.316;11.558;2023-02-21T13:32:38;20.00;33.00
30288;DHT22;17103;48.316;11.558;2023-02-21T13:35:07;20.20;33.90
30288;DHT22;17103;48.316;11.558;2023-02-21T13:37:35;20.20;33.50
30288;DHT22;17103;48.316;11.558;2023-02-21T13:40:19;20.40;33.50
30288;DHT22;17103;48.316;11.558;2023-02-21T13:42:57;20.50;32.80
30288;DHT22;17103;48.316;11.558;2023-02-21T13:45:25;20.60;33.50
30288;DHT22;17103;48.316;11.558;2023-02-21T13:56:11;21.00;32.60
30288;DHT22;17103;48.316;11.558;2023-02-21T13:58:42;21.10;32.00
30288;DHT22;17103;48.316;11.558;2023-02-21T14:01:21;21.20;33.00
30288;DHT22;17103;48.316;11.558;2023-02-21T14:03:49;21.30;32.50
30288;DHT22;17103;48.316;11.558;2023-02-21T14:08:58;21.40;33.30
30288;DHT22;17103;48.316;11.558;2023-02-21T14:11:29;21.50;33.80
30288;DHT22;17103;48.316;11.558;2023-02-21T14:13:59;21.60;33.00
30288;DHT22;17103;48.316;11.558;2023-02-21T14:17:02;21.70;32.40
30288;DHT22;17103;48.316;11.558;2023-02-21T14:19:48;21.80;32.70
30288;DHT22;17103;48.316;11.558;2023-02-21T14:22:17;22.00;32.50
30288;DHT22;17103;48.316;11.558;2023-02-21T14:24:47;22.10;33.50
30288;DHT22;17103;48.316;11.558;2023-02-21T14:32:47;22.50;31.40
30288;DHT22;17103;48.316;11.558;2023-02-21T14:38:02;22.70;32.30
30288;DHT22;17103;48.316;11.558;2023-02-21T14:59:41;23.20;30.90
30288;DHT22;17103;48.316;11.558;2023-02-21T15:08:19;23.20;30.70
30288;DHT22;17103;48.316;11.558;2023-02-21T15:10:47;23.30;32.20
30288;DHT22;17103;48.316;11.558;2023-02-21T15:13:28;23.30;33.10
30288;DHT22;17103;48.316;11.558;2023-02-21T15:16:01;23.40;32.40
30288;DHT22;17103;48.316;11.558;2023-02-21T15:18:30;23.40;31.90
30288;DHT22;17103;48.316;11.558;2023-02-21T15:23:42;23.50;30.40
30288;DHT22;17103;48.316;11.558;2023-02-21T15:26:23;23.60;32.50
30288;DHT22;17103;48.316;11.558;2023-02-21T15:29:11;23.60;30.80
30288;DHT22;17103;48.316;11.558;2023-02-21T15:31:44;23.70;32.40
30288;DHT22;17103;48.316;11.558;2023-02-21T15:34:16;23.70;32.10
30288;DHT22;17103;48.316;11.558;2023-02-21T15:36:47;23.80;31.80
30288;DHT22;17103;48.316;11.558;2023-02-21T15:39:23;23.90;31.90
30288;DHT22;17103;48.316;11.558;2023-02-21T15:41:51;24.00;33.00
30288;DHT22;17103;48.316;11.558;2023-02-21T15:44:28;24.10;34.00
30288;DHT22;17103;48.316;11.558;2023-02-21T15:47:00;24.30;33.60
30288;DHT22;17103;48.316;11.558;2023-02-21T15:49:30;24.50;32.90
30288;DHT22;17103;48.316;11.558;2023-02-21T15:52:01;24.70;33.30
30288;DHT22;17103;48.316;11.558;2023-02-21T15:54:28;25.00;33.80
30288;DHT22;17103;48.316;11.558;2023-02-21T15:57:16;25.20;32.70
30288;DHT22;17103;48.316;11.558;2023-02-21T15:59:43;25.40;32.40
30288;DHT22;17103;48.316;11.558;2023-02-21T16:02:13;25.60;33.20
30288;DHT22;17103;48.316;11.558;2023-02-21T16:09:45;26.30;31.80
30288;DHT22;17103;48.316;11.558;2023-02-21T16:14:43;26.80;31.90
30288;DHT22;17103;48.316;11.558;2023-02-21T16:19:40;27.20;31.00
30288;DHT22;17103;48.316;11.558;2023-02-21T16:22:18;27.40;30.80
30288;DHT22;17103;48.316;11.558;2023-02-21T16:24:45;27.50;30.10
30288;DHT22;17103;48.316;11.558;2023-02-21T16:27:15;27.70;30.10
30288;DHT22;17103;48.316;11.558;2023-02-21T16:29:40;27.70;29.50
30288;DHT22;17103;48.316;11.558;2023-02-21T16:32:17;27.70;29.80
30288;DHT22;17103;48.316;11.558;2023-02-21T16:34:44;27.70;28.80
30288;DHT22;17103;48.316;11.558;2023-02-21T16:37:11;27.70;29.20
30288;DHT22;17103;48.316;11.558;2023-02-21T16:39:38;27.60;28.80
30288;DHT22;17103;48.316;11.558;2023-02-21T16:42:05;27.60;28.70
30288;DHT22;17103;48.316;11.558;2023-02-21T16:44:31;27.50;28.50
30288;DHT22;17103;48.316;11.558;2023-02-21T16:46:57;27.30;28.50
30288;DHT22;17103;48.316;11.558;2023-02-21T16:49:23;27.20;28.30
30288;DHT22;17103;48.316;11.558;2023-02-21T16:51:48;26.90;28.20
30288;DHT22;17103;48.316;11.558;2023-02-21T16:54:14;26.80;28.20
30288;DHT22;17103;48.316;11.558;2023-02-21T16:56:43;26.60;28.10
30288;DHT22;17103;48.316;11.558;2023-02-21T16:59:14;26.40;27.90
30288;DHT22;17103;48.316;11.558;2023-02-21T17:01:40;26.20;28.30
30288;DHT22;17103;48.316;11.558;2023-02-21T17:04:18;25.90;28.00
30288;DHT22;17103;48.316;11.558;2023-02-21T17:06:52;25.70;27.70
30288;DHT22;17103;48.316;11.558;2023-02-21T17:09:21;25.40;27.80
30288;DHT22;17103;48.316;11.558;2023-02-21T17:11:47;25.30;28.00
30288;DHT22;17103;48.316;11.558;2023-02-21T17:14:14;25.00;28.20
30288;DHT22;17103;48.316;11.558;2023-02-21T17:16:40;24.70;28.10
30288;DHT22;17103;48.316;11.558;2023-02-21T17:19:14;24.50;28.20
30288;DHT22;17103;48.316;11.558;2023-02-21T17:21:41;24.20;28.30
30288;DHT22;17103;48.316;11.558;2023-02-21T17:24:07;24.00;28.30
30288;DHT22;17103;48.316;11.558;2023-02-21T17:26:34;23.80;28.40
30288;DHT22;17103;48.316;11.558;2023-02-21T17:28:59;23.50;28.40
30288;DHT22;17103;48.316;11.558;2023-02-21T17:31:25;23.30;28.50
30288;DHT22;17103;48.316;11.558;2023-02-21T17:33:51;23.20;28.60
30288;DHT22;17103;48.316;11.558;2023-02-21T17:36:22;22.90;28.70
30288;DHT22;17103;48.316;11.558;2023-02-21T17:38:48;22.70;28.70
30288;DHT22;17103;48.316;11.558;2023-02-21T17:41:14;22.50;28.80
30288;DHT22;17103;48.316;11.558;2023-02-21T17:43:40;22.30;28.90
30288;DHT22;17103;48.316;11.558;2023-02-21T17:46:11;22.10;29.00
30288;DHT22;17103;48.316;11.558;2023-02-21T17:48:40;21.90;29.00
30288;DHT22;17103;48.316;11.558;2023-02-21T17:51:06;21.60;29.00
30288;DHT22;17103;48.316;11.558;2023-02-21T17:53:32;21.60;29.20
30288;DHT22;17103;48.316;11.558;2023-02-21T17:55:59;21.40;29.30
30288;DHT22;17103;48.316;11.558;2023-02-21T17:58:26;21.20;29.30
30288;DHT22;17103;48.316;11.558;2023-02-21T18:00:52;21.10;29.50
30288;DHT22;17103;48.316;11.558;2023-02-21T18:03:20;20.90;29.50
30288;DHT22;17103;48.316;11.558;2023-02-21T18:05:46;20.80;29.60
30288;DHT22;17103;48.316;11.558;2023-02-21T18:08:12;20.60;29.60
30288;DHT22;17103;48.316;11.558;2023-02-21T18:10:38;20.50;29.70
30288;DHT22;17103;48.316;11.558;2023-02-21T18:13:04;20.40;29.80